Impacts METAR Board
IDs:

KCLT - Charlotte/Douglas In, NC, US

Updated at: 1900 UTC 21 Sep 2021
Potential Impact None Slight Moderate High
Time 21/07Z 21/08Z 21/09Z 21/10Z 21/11Z 21/12Z 21/13Z 21/14Z 21/15Z 21/16Z 21/17Z 21/18Z 21/19Z
Temp73 72 69 68 68 69 69 70 70 71 72 72 73
Dewpt63 63 65 65 66 66 67 67 68 69 69 69 70
Altim30.14 30.14 30.14 30.14 30.15 30.16 30.16 30.15 30.16 30.16 30.15 30.14 30.11
VIS10 10 4 3 3 7 5 5 7 3 5 5 5
CIG-- 130 48 37 14 27 8 6 12 6 7 9 7
CoverFEWOVCOVCOVCOVCOVCOVCOVCOVCOVCOVCOVCOVC
FltCatVFRVFRMVFRMVFRMVFRMVFRIFRIFRMVFRIFRIFRIFRIFR
WX----BR-RA BR-RA BR--BRBR---RA BR-RA BR-RA BRBR
WDir70705050606050605070607060
WSpd9 10 9 8 9 7 8 10 11 8 8 7 8
WGst-- 18 -- -- -- -- -- 17 -- -- 17 -- --
Raw hourly METARs
KCLT 210652Z 07009KT 10SM FEW050 23/17 A3014 RMK AO2 SLP195 T02280172
KCLT 210752Z 07010G18KT 10SM OVC130 22/17 A3014 RMK AO2 SLP195 T02220172
KCLT 210852Z 05009KT 4SM BR FEW020 SCT031 OVC048 21/18 A3014 RMK AO2 RAB21E52 SLP198 P0003 60003 T02060183 55003
KCLT 210952Z COR 05008KT 3SM -RA BR FEW021 BKN037 OVC055 20/18 A3014 RMK AO2 RAB0854 SLP197 P0004 T02000183
KCLT 211059Z 06009KT 3SM -RA BR BKN014 BKN027 OVC044 20/19 A3015 RMK AO2 P0000 T02000189
KCLT 211152Z 06007KT 7SM FEW008 BKN027 OVC037 21/19 A3016 RMK AO2 RAE52 SLP204 P0000 60009 70012 T02060189 10228 20200 51007
KCLT 211252Z 05008KT 5SM BR OVC008 21/19 A3016 RMK AO2 RAB01E34 CIG 006V012 SLP204 P0001 T02060194
KCLT 211352Z 06010G17KT 5SM BR BKN006 OVC010 21/19 A3015 RMK AO2 RAB1253E19 SLP204 P0000 T02110194
KCLT 211452Z 05011KT 7SM SCT006 BKN012 OVC015 21/20 A3016 RMK AO2 SLP207 60001 T02110200 53002
KCLT 211552Z 07008KT 3SM -RA BR BKN006 OVC012 22/21 A3016 RMK AO2 RAB13 SLP206 P0000 T02170206
KCLT 211652Z 06008G17KT 5SM -RA BR BKN007 OVC017 22/21 A3015 RMK AO2 SLP203 P0003 T02220206
KCLT 211752Z 07007KT 5SM -RA BR BKN009 OVC013 22/21 A3014 RMK AO2 RAE00B40 SLP199 P0000 60004 T02220206 10228 20200 58008
KCLT 211852Z 06008KT 5SM BR BKN007 OVC010 23/21 A3011 RMK AO2 RAE45 SLP190 P0000 T02280211



Page loaded:  19:57 UTC  |   12:57 PM Pacific  |   01:57 PM Mountain  |   02:57 PM Central  |   03:57 PM Eastern

 

ADVISORIES

FORECASTS

FORECASTS

OBSERVATIONS

USER TOOLS

ABOUT US